createdAt,value
2022-08-06T00:00:06.767Z,100.00
2022-08-06T00:02:31.759Z,100.00
2022-08-06T00:05:05.107Z,100.00
2022-08-06T00:07:48.234Z,100.00
2022-08-06T00:10:19.039Z,100.00
2022-08-06T00:12:48.720Z,100.00
2022-08-06T00:16:09.958Z,100.00
2022-08-06T00:18:09.195Z,100.00
2022-08-06T00:20:42.102Z,100.00
2022-08-06T00:23:16.573Z,100.00
2022-08-06T00:25:52.567Z,100.00
2022-08-06T00:28:30.760Z,100.00
2022-08-06T00:31:06.007Z,100.00
2022-08-06T00:33:43.931Z,100.00
2022-08-06T00:36:28.606Z,100.00
2022-08-06T00:39:00.996Z,100.00
2022-08-06T00:41:42.290Z,100.00
2022-08-06T00:44:14.389Z,100.00
2022-08-06T00:46:44.883Z,100.00
2022-08-06T00:49:13.521Z,100.00
2022-08-06T00:52:01.786Z,100.00
2022-08-06T00:54:35.993Z,100.00
2022-08-06T00:57:06.934Z,100.00
2022-08-06T00:59:38.885Z,100.00
2022-08-06T01:02:09.846Z,100.00
2022-08-06T01:04:38.726Z,100.00
2022-08-06T01:07:09.145Z,100.00
2022-08-06T01:09:45.969Z,100.00
2022-08-06T01:12:33.471Z,100.00
2022-08-06T01:15:16.193Z,100.00
2022-08-06T01:17:59.525Z,100.00
2022-08-06T01:21:56.948Z,100.00
2022-08-06T01:23:54.080Z,100.00
2022-08-06T01:26:46.646Z,100.00
2022-08-06T01:29:23.949Z,100.00
2022-08-06T01:32:07.088Z,100.00
2022-08-06T01:34:41.914Z,100.00
2022-08-06T01:37:25.032Z,100.00
2022-08-06T01:40:02.616Z,100.00
2022-08-06T01:42:36.288Z,100.00
2022-08-06T01:45:14.468Z,100.00
2022-08-06T01:47:54.630Z,100.00
2022-08-06T01:50:30.868Z,100.00
2022-08-06T01:53:03.552Z,100.00
2022-08-06T01:55:59.087Z,100.00
2022-08-06T01:58:31.902Z,100.00
2022-08-06T02:01:08.606Z,100.00
2022-08-06T02:03:49.967Z,100.00
2022-08-06T02:06:33.379Z,100.00
2022-08-06T02:09:21.970Z,100.00
2022-08-06T02:12:03.646Z,100.00
2022-08-06T02:14:41.642Z,100.00
2022-08-06T02:17:16.204Z,100.00
2022-08-06T02:20:05.019Z,100.00
2022-08-06T02:22:42.402Z,100.00
2022-08-06T02:25:22.362Z,100.00
2022-08-06T02:27:59.826Z,100.00
2022-08-06T02:30:36.732Z,100.00
2022-08-06T02:33:08.947Z,100.00
2022-08-06T02:35:46.670Z,100.00
2022-08-06T02:38:28.702Z,100.00
2022-08-06T02:41:03.920Z,100.00
2022-08-06T02:43:41.234Z,100.00
2022-08-06T02:46:17.376Z,100.00
2022-08-06T02:48:53.308Z,100.00
2022-08-06T02:52:10.094Z,100.00
2022-08-06T02:54:26.287Z,100.00
2022-08-06T02:57:04.290Z,100.00
2022-08-06T02:59:46.037Z,100.00
2022-08-06T03:02:27.494Z,100.00
2022-08-06T03:05:02.080Z,100.00
2022-08-06T03:07:34.399Z,100.00
2022-08-06T03:10:13.033Z,100.00
2022-08-06T03:12:44.071Z,100.00
2022-08-06T03:15:58.380Z,100.00
2022-08-06T03:18:08.093Z,100.00
2022-08-06T03:20:38.958Z,100.00
2022-08-06T03:23:10.881Z,100.00
2022-08-06T03:25:42.515Z,100.00
2022-08-06T03:28:22.442Z,100.00
2022-08-06T03:30:55.271Z,100.00
2022-08-06T03:33:41.893Z,100.00
2022-08-06T03:36:17.280Z,100.00
2022-08-06T03:38:54.636Z,100.00
2022-08-06T03:41:29.166Z,100.00
2022-08-06T03:44:05.121Z,100.00
2022-08-06T03:46:39.441Z,100.00
2022-08-06T03:49:26.063Z,100.00
2022-08-06T03:51:58.242Z,100.00
2022-08-06T03:54:34.202Z,100.00
2022-08-06T03:57:09.878Z,100.00
2022-08-06T03:59:59.010Z,100.00
2022-08-06T04:02:37.315Z,100.00
2022-08-06T04:05:21.078Z,100.00
2022-08-06T04:07:59.771Z,100.00
2022-08-06T04:10:38.980Z,100.00
2022-08-06T04:14:03.930Z,100.00
2022-08-06T04:16:02.021Z,100.00
2022-08-06T04:18:41.545Z,100.00
2022-08-06T04:21:20.799Z,100.00
2022-08-06T04:24:10.323Z,100.00
2022-08-06T04:26:41.319Z,100.00
2022-08-06T04:29:17.933Z,100.00
2022-08-06T04:32:11.584Z,100.00
2022-08-06T04:36:07.649Z,100.00
2022-08-06T04:37:39.022Z,100.00
2022-08-06T04:40:15.223Z,100.00
2022-08-06T04:42:44.740Z,100.00
2022-08-06T04:46:16.506Z,100.00
2022-08-06T04:48:06.106Z,100.00
2022-08-06T04:50:37.255Z,100.00
2022-08-06T04:53:09.095Z,100.00
2022-08-06T04:55:41.481Z,100.00
2022-08-06T04:58:32.895Z,100.00
2022-08-06T05:01:10.833Z,100.00
2022-08-06T05:04:06.959Z,100.00
2022-08-06T05:06:40.764Z,100.00
2022-08-06T05:09:23.418Z,100.00
2022-08-06T05:12:18.170Z,100.00
2022-08-06T05:14:55.400Z,100.00
2022-08-06T05:17:34.924Z,100.00
2022-08-06T05:20:27.405Z,100.00
2022-08-06T05:23:08.982Z,100.00
2022-08-06T05:25:54.140Z,100.00
2022-08-06T05:28:27.646Z,100.00
2022-08-06T05:30:57.554Z,100.00
2022-08-06T05:33:29.827Z,100.00
2022-08-06T05:36:01.800Z,100.00
2022-08-06T05:38:35.698Z,100.00
2022-08-06T05:41:07.617Z,100.00
2022-08-06T05:44:00.403Z,100.00
2022-08-06T05:46:28.347Z,100.00
2022-08-06T05:49:54.544Z,100.00
2022-08-06T05:52:00.172Z,100.00
2022-08-06T05:54:42.639Z,100.00
2022-08-06T05:57:16.949Z,100.00
2022-08-06T05:59:57.337Z,100.00
2022-08-06T06:02:30.958Z,100.00
2022-08-06T06:06:06.344Z,100.00
2022-08-06T06:08:08.302Z,100.00
2022-08-06T06:10:53.325Z,100.00
2022-08-06T06:13:32.542Z,100.00
2022-08-06T06:16:28.658Z,100.00
2022-08-06T06:19:16.313Z,100.00
2022-08-06T06:21:58.208Z,100.00
2022-08-06T06:24:37.536Z,100.00
2022-08-06T06:27:35.875Z,100.00
2022-08-06T06:30:11.975Z,100.00
2022-08-06T06:33:01.235Z,100.00
2022-08-06T06:35:36.188Z,100.00
2022-08-06T06:38:26.092Z,100.00
2022-08-06T06:41:19.870Z,100.00
2022-08-06T06:43:58.277Z,100.00
2022-08-06T06:46:40.890Z,100.00
2022-08-06T06:50:00.272Z,100.00
2022-08-06T06:52:30.887Z,100.00
2022-08-06T06:55:18.957Z,100.00
2022-08-06T06:57:53.996Z,100.00
2022-08-06T07:00:45.441Z,100.00
2022-08-06T07:03:15.222Z,100.00
2022-08-06T07:06:05.341Z,100.00
2022-08-06T07:08:42.715Z,100.00
2022-08-06T07:11:20.728Z,100.00
2022-08-06T07:13:52.879Z,100.00
2022-08-06T07:16:35.213Z,100.00
2022-08-06T07:19:10.378Z,100.00
2022-08-06T07:21:51.368Z,100.00
2022-08-06T07:24:33.381Z,100.00
2022-08-06T07:27:14.491Z,100.00
2022-08-06T07:29:50.035Z,100.00
2022-08-06T07:32:32.357Z,100.00
2022-08-06T07:35:12.246Z,100.00
2022-08-06T07:37:55.554Z,100.00
2022-08-06T07:40:30.668Z,100.00
2022-08-06T07:43:11.495Z,100.00
2022-08-06T07:45:56.638Z,100.00
2022-08-06T07:48:33.355Z,100.00
2022-08-06T07:51:05.054Z,100.00
2022-08-06T07:53:53.164Z,100.00
2022-08-06T07:56:29.494Z,100.00
2022-08-06T07:59:00.078Z,100.00
2022-08-06T08:01:36.322Z,100.00
2022-08-06T08:04:34.800Z,99.75
2022-08-06T08:07:13.136Z,100.00
2022-08-06T08:10:02.039Z,100.00
2022-08-06T08:12:37.737Z,95.70
2022-08-06T08:15:17.878Z,88.96
2022-08-06T08:17:57.531Z,84.55
2022-08-06T08:20:34.413Z,81.40
2022-08-06T08:23:07.900Z,79.97
2022-08-06T08:25:42.171Z,74.95
2022-08-06T08:28:15.255Z,72.64
2022-08-06T08:30:49.430Z,76.60
2022-08-06T08:33:19.606Z,77.23
2022-08-06T08:36:00.915Z,81.02
2022-08-06T08:38:31.088Z,81.16
2022-08-06T08:41:05.766Z,81.81
2022-08-06T08:44:00.274Z,87.11
2022-08-06T08:46:32.410Z,81.88
2022-08-06T08:49:16.030Z,81.56
2022-08-06T08:51:47.784Z,83.37
2022-08-06T08:54:23.516Z,79.06
2022-08-06T08:57:11.685Z,77.68
2022-08-06T08:59:56.989Z,75.51
2022-08-06T09:02:30.631Z,74.68
2022-08-06T09:05:00.516Z,75.00
2022-08-06T09:07:36.932Z,69.77
2022-08-06T09:10:09.200Z,67.13
2022-08-06T09:12:45.428Z,66.59
2022-08-06T09:15:18.994Z,63.95
2022-08-06T09:18:12.479Z,61.42
2022-08-06T09:20:41.355Z,62.63
2022-08-06T09:23:19.186Z,64.63
2022-08-06T09:25:52.171Z,68.74
2022-08-06T09:28:36.353Z,70.71
2022-08-06T09:31:09.945Z,65.05
2022-08-06T09:34:29.093Z,75.07
2022-08-06T09:36:45.707Z,74.75
2022-08-06T09:39:14.682Z,70.56
2022-08-06T09:41:53.916Z,70.27
2022-08-06T09:44:35.262Z,70.59
2022-08-06T09:47:07.618Z,70.25
2022-08-06T09:50:00.509Z,70.65
2022-08-06T09:52:29.693Z,64.87
2022-08-06T09:55:01.226Z,64.07
2022-08-06T09:57:45.779Z,63.41
2022-08-06T10:00:29.199Z,60.82
2022-08-06T10:02:59.593Z,58.30
2022-08-06T10:05:50.473Z,55.18
2022-08-06T10:08:22.632Z,57.67
2022-08-06T10:10:53.350Z,54.20
2022-08-06T10:13:26.105Z,47.16
2022-08-06T10:16:00.659Z,47.62
2022-08-06T10:18:56.644Z,50.46
2022-08-06T10:21:40.171Z,55.10
2022-08-06T10:24:13.051Z,52.83
2022-08-06T10:26:44.938Z,49.43
2022-08-06T10:29:16.561Z,52.87
2022-08-06T10:31:52.751Z,52.49
2022-08-06T10:34:30.822Z,48.83
2022-08-06T10:37:10.938Z,51.29
2022-08-06T10:40:08.275Z,51.39
2022-08-06T10:42:40.556Z,51.90
2022-08-06T10:45:14.246Z,54.48
2022-08-06T10:48:58.345Z,55.59
2022-08-06T10:50:50.900Z,57.43
2022-08-06T10:54:02.645Z,54.13
2022-08-06T10:56:25.708Z,48.96
2022-08-06T10:59:00.838Z,48.86
2022-08-06T11:01:43.907Z,54.54
2022-08-06T11:04:35.123Z,57.80
2022-08-06T11:08:09.137Z,53.82
2022-08-06T11:10:51.323Z,50.35
2022-08-06T11:13:36.971Z,55.41
2022-08-06T11:16:27.959Z,48.33
2022-08-06T11:19:07.153Z,51.22
2022-08-06T11:21:59.083Z,55.57
2022-08-06T11:24:37.558Z,50.60
2022-08-06T11:27:11.029Z,49.87
2022-08-06T11:30:12.633Z,52.59
2022-08-06T11:32:50.941Z,49.67
2022-08-06T11:35:51.768Z,49.11
2022-08-06T11:39:10.019Z,41.55
2022-08-06T11:41:57.722Z,43.06
2022-08-06T11:44:34.347Z,44.30
2022-08-06T11:47:24.653Z,45.53
2022-08-06T11:50:02.965Z,46.11
2022-08-06T11:52:43.999Z,47.46
2022-08-06T11:55:22.817Z,47.85
2022-08-06T11:58:23.551Z,51.50
2022-08-06T12:01:03.989Z,50.19
2022-08-06T12:03:52.265Z,48.03
2022-08-06T12:06:26.601Z,47.38
2022-08-06T12:09:20.953Z,49.04
2022-08-06T12:11:53.889Z,41.05
2022-08-06T12:14:49.148Z,47.93
2022-08-06T12:17:20.093Z,46.13
2022-08-06T12:20:01.843Z,48.16
2022-08-06T12:22:33.927Z,52.21
2022-08-06T12:25:11.078Z,43.94
2022-08-06T12:27:54.341Z,41.71
2022-08-06T12:30:36.681Z,42.99
2022-08-06T12:33:15.495Z,37.19
2022-08-06T12:35:53.725Z,35.99
2022-08-06T12:38:28.467Z,37.60
2022-08-06T12:40:58.499Z,40.30
2022-08-06T12:43:46.304Z,37.96
2022-08-06T12:46:20.818Z,35.61
2022-08-06T12:48:53.179Z,34.19
2022-08-06T12:51:27.502Z,35.77
2022-08-06T12:54:00.305Z,36.87
2022-08-06T12:56:37.383Z,37.19
2022-08-06T12:59:22.698Z,39.92
2022-08-06T13:02:09.120Z,35.30
2022-08-06T13:04:44.577Z,36.07
2022-08-06T13:07:14.899Z,36.29
2022-08-06T13:10:33.011Z,37.53
2022-08-06T13:14:13.163Z,38.72
2022-08-06T13:16:02.033Z,34.77
2022-08-06T13:18:47.724Z,37.26
2022-08-06T13:21:22.120Z,36.75
2022-08-06T13:23:54.138Z,34.39
2022-08-06T13:26:26.849Z,34.89
2022-08-06T13:30:35.628Z,37.55
2022-08-06T13:32:19.109Z,35.44
2022-08-06T13:34:53.197Z,36.70
2022-08-06T13:37:55.689Z,35.62
2022-08-06T13:40:41.826Z,36.05
2022-08-06T13:43:39.872Z,36.70
2022-08-06T13:46:15.536Z,35.17
2022-08-06T13:48:49.508Z,37.59
2022-08-06T13:51:22.670Z,35.60
2022-08-06T13:53:59.238Z,38.05
2022-08-06T13:56:34.104Z,36.69
2022-08-06T13:59:02.454Z,33.83
2022-08-06T14:01:44.570Z,40.39
2022-08-06T14:04:22.912Z,37.19
2022-08-06T14:06:59.327Z,36.71
2022-08-06T14:09:58.035Z,36.04
2022-08-06T14:12:20.646Z,41.49
2022-08-06T14:14:50.546Z,42.04
2022-08-06T14:17:19.696Z,40.60
2022-08-06T14:20:16.296Z,38.80
2022-08-06T14:22:42.945Z,42.31
2022-08-06T14:25:11.997Z,40.63
2022-08-06T14:27:43.621Z,39.59
2022-08-06T14:30:29.673Z,43.46
2022-08-06T14:33:02.988Z,39.18
2022-08-06T14:35:50.448Z,38.12
2022-08-06T14:38:30.395Z,38.62
2022-08-06T14:41:27.315Z,35.48
2022-08-06T14:44:24.687Z,35.94
2022-08-06T14:46:53.225Z,36.76
2022-08-06T14:49:21.661Z,34.17
2022-08-06T14:52:19.919Z,34.72
2022-08-06T14:54:41.611Z,35.44
2022-08-06T14:57:15.151Z,36.70
2022-08-06T14:59:48.775Z,36.21
2022-08-06T15:02:24.862Z,35.75
2022-08-06T15:04:54.148Z,37.21
2022-08-06T15:07:26.991Z,34.62
2022-08-06T15:10:27.122Z,37.98
2022-08-06T15:13:01.214Z,38.31
2022-08-06T15:15:47.029Z,36.58
2022-08-06T15:18:54.122Z,37.47
2022-08-06T15:21:51.510Z,36.46
2022-08-06T15:24:31.660Z,38.17
2022-08-06T15:27:14.315Z,38.08
2022-08-06T15:29:47.393Z,36.53
2022-08-06T15:32:18.999Z,37.08
2022-08-06T15:34:51.253Z,37.23
2022-08-06T15:37:54.349Z,36.70
2022-08-06T15:40:13.193Z,35.46
2022-08-06T15:42:46.346Z,36.38
2022-08-06T15:45:49.893Z,35.18
2022-08-06T15:48:06.909Z,34.72
2022-08-06T15:50:43.092Z,33.51
2022-08-06T15:53:23.031Z,36.26
2022-08-06T15:55:54.920Z,36.13
2022-08-06T15:58:28.303Z,37.44
2022-08-06T16:01:03.572Z,37.31
2022-08-06T16:03:37.857Z,39.04
2022-08-06T16:06:25.911Z,36.29
2022-08-06T16:09:00.838Z,35.26
2022-08-06T16:11:48.295Z,36.61
2022-08-06T16:14:33.430Z,36.83
2022-08-06T16:17:09.965Z,37.42
2022-08-06T16:19:49.135Z,39.22
2022-08-06T16:22:20.457Z,38.85
2022-08-06T16:24:50.110Z,37.78
2022-08-06T16:27:27.327Z,39.48
2022-08-06T16:30:09.326Z,37.32
2022-08-06T16:32:38.767Z,39.73
2022-08-06T16:35:15.307Z,38.26
2022-08-06T16:37:51.699Z,40.97
2022-08-06T16:40:24.545Z,39.18
2022-08-06T16:42:56.847Z,39.22
2022-08-06T16:45:37.286Z,40.51
2022-08-06T16:48:22.081Z,40.13
2022-08-06T16:51:02.397Z,40.79
2022-08-06T16:54:14.443Z,41.75
2022-08-06T16:56:21.673Z,42.98
2022-08-06T16:58:54.739Z,40.92
2022-08-06T17:04:23.680Z,42.67
2022-08-06T17:06:56.334Z,42.63
2022-08-06T17:09:25.909Z,42.77
2022-08-06T17:12:00.531Z,41.48
2022-08-06T17:14:33.151Z,43.24
2022-08-06T17:17:06.884Z,46.03
2022-08-06T17:19:41.748Z,47.63
2022-08-06T17:22:12.764Z,44.99
2022-08-06T17:30:22.318Z,48.03
2022-08-06T17:32:54.406Z,48.80
2022-08-06T17:35:23.242Z,47.90
2022-08-06T17:38:16.189Z,49.42
2022-08-06T17:40:49.487Z,50.41
2022-08-06T17:43:22.407Z,48.28
2022-08-06T17:46:00.206Z,47.65
2022-08-06T17:48:32.310Z,48.83
2022-08-06T17:51:09.770Z,52.67
2022-08-06T17:53:53.325Z,49.10
2022-08-06T17:56:30.903Z,52.64
2022-08-06T17:59:17.489Z,51.52
2022-08-06T18:02:10.870Z,54.03
2022-08-06T18:05:02.551Z,51.79
2022-08-06T18:08:11.279Z,52.81
2022-08-06T18:10:31.114Z,52.39
2022-08-06T18:13:01.931Z,53.39
2022-08-06T18:15:40.488Z,55.93
2022-08-06T18:18:20.240Z,54.25
2022-08-06T18:20:50.172Z,55.73
2022-08-06T18:23:20.833Z,56.80
2022-08-06T18:25:56.121Z,58.97
2022-08-06T18:28:39.947Z,55.93
2022-08-06T18:31:19.947Z,59.62
2022-08-06T18:33:54.113Z,61.29
2022-08-06T18:36:32.927Z,58.63
2022-08-06T18:39:02.438Z,57.70
2022-08-06T18:41:33.065Z,60.79
2022-08-06T18:44:01.943Z,62.26
2022-08-06T18:46:57.508Z,63.92
2022-08-06T18:49:32.438Z,66.70
2022-08-06T18:52:24.900Z,63.74
2022-08-06T18:54:56.895Z,64.18
2022-08-06T18:57:37.954Z,65.89
2022-08-06T19:00:21.079Z,68.22
2022-08-06T19:02:52.751Z,68.11
2022-08-06T19:05:26.943Z,68.09
2022-08-06T19:07:58.655Z,69.88
2022-08-06T19:13:12.225Z,66.02
2022-08-06T19:15:52.101Z,67.80
2022-08-06T19:18:34.099Z,67.67
2022-08-06T19:21:16.988Z,67.59
2022-08-06T19:24:02.393Z,69.38
2022-08-06T19:26:40.540Z,69.13
2022-08-06T19:30:02.017Z,69.97
2022-08-06T19:33:21.449Z,71.58
2022-08-06T19:36:45.704Z,70.88
2022-08-06T19:39:54.152Z,73.04
2022-08-06T19:42:31.853Z,72.02
2022-08-06T19:45:04.247Z,73.06
2022-08-06T19:47:49.227Z,73.14
2022-08-06T19:50:19.916Z,72.57
2022-08-06T19:52:53.359Z,73.84
2022-08-06T19:56:06.787Z,77.02
2022-08-06T19:58:26.037Z,78.72
2022-08-06T20:01:31.240Z,78.80
2022-08-06T20:04:01.922Z,78.34
2022-08-06T20:07:01.778Z,79.38
2022-08-06T20:09:59.152Z,78.37
2022-08-06T20:12:32.330Z,77.93
2022-08-06T20:15:07.892Z,79.19
2022-08-06T20:17:48.646Z,79.29
2022-08-06T20:20:29.294Z,79.54
2022-08-06T20:23:08.651Z,78.78
2022-08-06T20:26:09.447Z,79.43
2022-08-06T20:29:07.547Z,79.35
2022-08-06T20:31:23.886Z,78.19
2022-08-06T20:33:58.275Z,79.02
2022-08-06T20:36:30.876Z,78.83
2022-08-06T20:39:00.839Z,82.29
2022-08-06T20:42:03.649Z,82.28
2022-08-06T20:44:23.507Z,82.26
2022-08-06T20:47:46.193Z,82.38
2022-08-06T20:50:02.928Z,82.79
2022-08-06T20:52:33.733Z,82.21
2022-08-06T20:55:04.309Z,83.13
2022-08-06T20:57:45.824Z,83.65
2022-08-06T21:00:21.873Z,82.66
2022-08-06T21:03:03.368Z,83.47
2022-08-06T21:05:51.161Z,82.15
2022-08-06T21:08:26.752Z,83.44
2022-08-06T21:10:58.428Z,82.35
2022-08-06T21:13:48.805Z,83.47
2022-08-06T21:16:28.706Z,84.63
2022-08-06T21:19:02.562Z,81.61
2022-08-06T21:21:31.417Z,84.21
2022-08-06T21:24:01.367Z,85.75
2022-08-06T21:26:34.756Z,86.13
2022-08-06T21:30:07.132Z,87.43
2022-08-06T21:31:57.964Z,86.78
2022-08-06T21:34:27.964Z,87.12
2022-08-06T21:36:57.074Z,87.41
2022-08-06T21:39:30.138Z,88.62
2022-08-06T21:42:16.780Z,87.00
2022-08-06T21:44:49.984Z,88.06
2022-08-06T21:47:19.708Z,87.48
2022-08-06T21:49:59.651Z,89.45
2022-08-06T21:52:35.724Z,88.52
2022-08-06T21:56:35.505Z,89.45
2022-08-06T21:58:02.855Z,88.21
2022-08-06T22:00:45.237Z,90.41
2022-08-06T22:04:38.732Z,91.42
2022-08-06T22:06:21.693Z,91.52
2022-08-06T22:08:57.357Z,91.38
2022-08-06T22:12:36.370Z,90.58
2022-08-06T22:14:28.403Z,90.69
2022-08-06T22:17:06.023Z,92.01
2022-08-06T22:19:39.195Z,91.47
2022-08-06T22:22:08.307Z,90.53
2022-08-06T22:24:39.210Z,90.83
2022-08-06T22:27:12.672Z,90.70
2022-08-06T22:30:04.407Z,91.49
2022-08-06T22:32:39.789Z,92.49
2022-08-06T22:35:11.342Z,92.50
2022-08-06T22:38:17.323Z,94.10
2022-08-06T22:40:30.087Z,94.49
2022-08-06T22:43:05.389Z,95.58
2022-08-06T22:46:01.250Z,96.63
2022-08-06T22:48:35.587Z,97.94
2022-08-06T22:51:10.843Z,98.08
2022-08-06T22:54:26.843Z,98.69
2022-08-06T22:56:38.199Z,98.25
2022-08-06T22:59:31.954Z,99.38
2022-08-06T23:02:06.157Z,99.28
2022-08-06T23:04:42.411Z,99.10
2022-08-06T23:07:25.220Z,99.76
2022-08-06T23:10:02.387Z,100.00
2022-08-06T23:12:36.673Z,100.00
2022-08-06T23:15:30.321Z,100.00
2022-08-06T23:18:00.382Z,100.00
2022-08-06T23:20:31.675Z,100.00
2022-08-06T23:23:03.018Z,100.00
2022-08-06T23:25:59.869Z,100.00
2022-08-06T23:28:22.925Z,100.00
2022-08-06T23:30:52.249Z,100.00
2022-08-06T23:33:20.972Z,100.00
2022-08-06T23:35:50.700Z,100.00
2022-08-06T23:38:31.677Z,100.00
2022-08-06T23:41:16.311Z,100.00
2022-08-06T23:43:49.741Z,100.00
2022-08-06T23:46:26.995Z,100.00
2022-08-06T23:48:56.473Z,100.00
2022-08-06T23:51:35.805Z,100.00
2022-08-06T23:54:23.042Z,100.00
2022-08-06T23:56:57.821Z,100.00
2022-08-06T23:59:44.691Z,100.00
